Time;durP1;ratioP1;P1;durP2;ratioP2;P2;SDS_P1;SDS_P2;PMS_P1;PMS_P2;Temp;Humidity;BMP_temperature;BMP_pressure;BME280_temperature;BME280_humidity;BME280_pressure;Samples;Min_cycle;Max_cycle;Signal;HPM_P1;HPM_P2
2024/04/08 00:00:41;;;;;;;15.52;3.72;;;10.90;99.90;;;;;;5003792;28;20417;-75
2024/04/08 00:03:07;;;;;;;19.88;4.20;;;11.00;99.90;;;;;;4981245;28;20061;-75
2024/04/08 00:05:32;;;;;;;16.42;3.08;;;10.90;99.90;;;;;;5005193;28;20042;-75
2024/04/08 00:07:58;;;;;;;13.80;3.15;;;10.90;99.90;;;;;;5004373;28;20057;-74
2024/04/08 00:10:24;;;;;;;15.85;2.10;;;10.90;99.90;;;;;;5002039;28;20050;-74
2024/04/08 00:12:50;;;;;;;17.90;2.67;;;10.90;99.90;;;;;;5005842;28;20124;-74
2024/04/08 00:15:16;;;;;;;16.35;2.20;;;10.80;99.90;;;;;;5002002;28;20108;-74
2024/04/08 00:17:42;;;;;;;24.88;4.93;;;10.80;99.90;;;;;;5006023;28;20061;-74
2024/04/08 00:20:09;;;;;;;14.38;2.83;;;10.80;99.90;;;;;;5001994;28;20054;-73
2024/04/08 00:22:35;;;;;;;16.33;2.60;;;10.80;99.90;;;;;;5006603;28;20049;-73
2024/04/08 00:25:00;;;;;;;18.52;3.38;;;10.80;99.90;;;;;;5001427;28;20042;-75
2024/04/08 00:27:28;;;;;;;19.10;3.22;;;10.80;99.90;;;;;;5003572;28;20046;-74
2024/04/08 00:29:53;;;;;;;21.08;2.72;;;10.70;99.90;;;;;;4991534;28;20058;-74
2024/04/08 00:32:19;;;;;;;18.27;2.58;;;10.60;99.90;;;;;;4987244;28;20066;-74
2024/04/08 00:34:45;;;;;;;22.05;3.08;;;10.70;99.90;;;;;;4999783;28;20096;-74
2024/04/08 00:37:11;;;;;;;28.88;3.97;;;10.70;99.90;;;;;;5007202;28;20497;-74
2024/04/08 00:39:37;;;;;;;14.55;3.08;;;10.80;99.90;;;;;;4998644;28;20046;-74
2024/04/08 00:42:03;;;;;;;15.68;4.20;;;10.80;99.90;;;;;;4974721;28;20505;-76
2024/04/08 00:44:29;;;;;;;25.30;4.57;;;10.90;99.90;;;;;;4998654;28;20050;-75
2024/04/08 00:46:54;;;;;;;14.27;2.95;;;10.90;99.90;;;;;;4989288;28;20042;-75
2024/04/08 00:49:21;;;;;;;24.88;2.95;;;10.80;99.90;;;;;;4987409;28;20421;-75
2024/04/08 00:51:47;;;;;;;20.73;3.88;;;10.80;99.90;;;;;;5000934;28;20050;-75
2024/04/08 00:54:13;;;;;;;24.60;3.13;;;10.80;99.90;;;;;;5003430;28;20061;-75
2024/04/08 00:56:39;;;;;;;19.42;2.78;;;10.80;99.90;;;;;;5003302;28;20054;-75
2024/04/08 00:59:06;;;;;;;25.80;3.25;;;10.90;99.90;;;;;;4999140;28;20088;-75
2024/04/08 01:01:32;;;;;;;18.17;2.97;;;10.90;99.90;;;;;;5001883;28;20548;-75
2024/04/08 01:03:58;;;;;;;18.65;3.17;;;10.80;99.90;;;;;;4972445;28;20049;-75
2024/04/08 01:06:24;;;;;;;18.08;3.05;;;10.90;99.90;;;;;;4994449;28;20077;-75
2024/04/08 01:08:50;;;;;;;24.25;7.35;;;11.00;99.90;;;;;;4998393;28;20390;-75
2024/04/08 01:11:16;;;;;;;32.60;4.00;;;11.00;99.90;;;;;;4997004;28;20061;-74
2024/04/08 01:13:41;;;;;;;25.48;3.88;;;11.00;99.90;;;;;;4985938;28;20054;-75
2024/04/08 01:16:08;;;;;;;18.00;3.33;;;11.00;99.90;;;;;;4985123;28;20050;-74
2024/04/08 01:18:33;;;;;;;17.95;2.83;;;11.00;99.90;;;;;;4985219;28;20057;-74
2024/04/08 01:21:02;;;;;;;19.15;3.53;;;10.90;99.90;;;;;;4996756;28;20432;-75
2024/04/08 01:23:29;;;;;;;20.35;2.92;;;10.90;99.90;;;;;;4980555;28;20153;-75
2024/04/08 01:25:55;;;;;;;23.13;3.55;;;10.90;99.90;;;;;;5003088;28;20049;-75
2024/04/08 01:28:21;;;;;;;17.23;4.15;;;11.00;99.90;;;;;;5001269;28;20051;-75
2024/04/08 01:30:49;;;;;;;18.40;3.28;;;10.90;99.90;;;;;;4999130;28;20043;-75
2024/04/08 01:33:16;;;;;;;14.85;4.10;;;11.00;99.90;;;;;;5023732;28;20049;-74
2024/04/08 01:35:42;;;;;;;25.35;5.10;;;10.90;99.90;;;;;;5023447;28;20049;-75
2024/04/08 01:38:08;;;;;;;28.27;4.05;;;10.90;99.90;;;;;;5019133;28;20060;-74
2024/04/08 01:40:34;;;;;;;17.33;3.00;;;10.90;99.90;;;;;;5027239;28;20462;-74
2024/04/08 01:43:00;;;;;;;20.98;3.22;;;10.90;99.90;;;;;;5013752;28;20060;-75
2024/04/08 01:45:26;;;;;;;17.45;3.33;;;10.90;99.90;;;;;;5023330;28;20496;-73
2024/04/08 01:47:51;;;;;;;23.33;3.42;;;10.90;99.90;;;;;;4990809;28;20110;-73
2024/04/08 01:50:17;;;;;;;17.60;3.10;;;10.90;99.90;;;;;;5021254;28;20423;-73
2024/04/08 01:52:43;;;;;;;20.15;3.85;;;10.90;99.90;;;;;;5016059;28;20104;-73
2024/04/08 01:55:09;;;;;;;13.10;3.75;;;10.90;99.90;;;;;;5012260;28;20463;-74
2024/04/08 01:57:35;;;;;;;19.75;3.58;;;10.90;99.90;;;;;;5023976;28;20048;-73
2024/04/08 02:00:00;;;;;;;21.00;3.15;;;10.90;99.90;;;;;;5024935;28;20048;-75
2024/04/08 02:02:26;;;;;;;26.83;3.38;;;11.00;99.90;;;;;;5023667;28;20120;-74
2024/04/08 02:04:52;;;;;;;13.90;2.22;;;10.90;99.90;;;;;;5020599;28;20051;-74
2024/04/08 02:07:18;;;;;;;21.85;4.47;;;10.80;99.90;;;;;;5022739;28;20301;-74
2024/04/08 02:09:43;;;;;;;22.58;2.63;;;10.80;99.90;;;;;;5026785;28;20072;-75
2024/04/08 02:12:09;;;;;;;23.20;4.93;;;10.90;99.90;;;;;;5018391;28;20079;-75
2024/04/08 02:14:35;;;;;;;18.13;3.20;;;10.80;99.90;;;;;;5025307;28;20080;-75
2024/04/08 02:17:01;;;;;;;13.32;2.50;;;10.80;99.90;;;;;;5037584;28;20280;-74
2024/04/08 02:19:27;;;;;;;19.60;2.88;;;10.80;99.90;;;;;;5021951;28;20044;-74
2024/04/08 02:21:53;;;;;;;19.27;2.88;;;10.80;99.90;;;;;;5010371;28;20075;-74
2024/04/08 02:24:19;;;;;;;18.75;3.40;;;10.80;99.90;;;;;;5021537;28;20049;-73
2024/04/08 02:26:45;;;;;;;11.30;3.25;;;10.80;99.90;;;;;;5024456;28;20443;-73
2024/04/08 02:29:11;;;;;;;16.30;3.13;;;10.80;99.90;;;;;;5022909;28;20052;-73
2024/04/08 02:31:37;;;;;;;33.65;3.72;;;10.80;99.90;;;;;;5027763;28;20508;-73
2024/04/08 02:34:03;;;;;;;23.77;4.72;;;10.80;99.90;;;;;;5007381;28;20107;-73
2024/04/08 02:36:28;;;;;;;14.90;2.85;;;10.80;99.90;;;;;;5025876;28;20483;-73
2024/04/08 02:38:54;;;;;;;20.60;2.95;;;10.80;99.90;;;;;;5020543;28;20095;-74
2024/04/08 02:41:20;;;;;;;14.30;3.60;;;10.80;99.90;;;;;;5026089;28;20083;-73
2024/04/08 02:43:46;;;;;;;18.58;4.18;;;10.80;99.90;;;;;;4974932;28;20096;-74
2024/04/08 02:46:13;;;;;;;18.52;2.60;;;10.80;99.90;;;;;;4990424;28;20419;-74
2024/04/08 02:48:39;;;;;;;26.27;3.60;;;10.80;99.90;;;;;;5023978;28;20059;-74
2024/04/08 02:51:07;;;;;;;25.65;4.28;;;10.70;99.90;;;;;;5021464;28;20049;-74
2024/04/08 02:53:36;;;;;;;20.80;3.92;;;10.70;99.90;;;;;;5004482;28;20861;-74
2024/04/08 02:56:05;;;;;;;16.92;3.55;;;10.70;99.90;;;;;;5024096;28;20087;-74
2024/04/08 02:58:31;;;;;;;21.90;3.22;;;10.60;99.90;;;;;;5004928;28;20075;-73
2024/04/08 03:01:02;;;;;;;20.00;3.75;;;10.60;99.90;;;;;;5020919;28;20056;-73
2024/04/08 03:03:28;;;;;;;23.45;3.70;;;10.60;99.90;;;;;;5029734;28;20480;-73
2024/04/08 03:05:53;;;;;;;25.77;3.15;;;10.40;99.90;;;;;;5044126;28;20052;-73
2024/04/08 03:08:19;;;;;;;17.77;2.63;;;10.60;99.90;;;;;;5030379;28;20067;-73
2024/04/08 03:10:45;;;;;;;13.85;2.63;;;10.70;99.90;;;;;;5018437;28;20048;-73
2024/04/08 03:13:11;;;;;;;13.10;3.10;;;10.60;99.90;;;;;;5027267;28;20067;-74
2024/04/08 03:15:37;;;;;;;18.50;2.90;;;10.50;99.90;;;;;;5025036;28;20052;-74
2024/04/08 03:18:06;;;;;;;14.38;2.92;;;10.50;99.90;;;;;;5024743;28;20111;-74
2024/04/08 03:20:32;;;;;;;14.57;2.92;;;10.50;99.90;;;;;;5022726;28;20044;-74
2024/04/08 03:22:58;;;;;;;21.67;4.03;;;10.40;99.90;;;;;;5017982;28;20060;-74
2024/04/08 03:25:24;;;;;;;22.85;3.80;;;10.30;99.90;;;;;;5026939;28;20411;-73
2024/04/08 03:27:51;;;;;;;14.63;2.88;;;10.40;99.90;;;;;;5028765;28;20073;-74
2024/04/08 03:30:17;;;;;;;15.20;2.40;;;10.40;99.90;;;;;;5030674;28;20057;-73
2024/04/08 03:32:43;;;;;;;14.93;2.63;;;10.50;99.90;;;;;;5023864;28;20060;-74
2024/04/08 03:35:08;;;;;;;22.63;3.20;;;10.50;99.90;;;;;;5025383;28;20061;-73
2024/04/08 03:37:34;;;;;;;26.90;5.30;;;10.50;99.90;;;;;;5022233;28;20773;-74
2024/04/08 03:40:00;;;;;;;17.20;2.65;;;10.50;99.90;;;;;;5013550;28;20493;-73
2024/04/08 03:42:26;;;;;;;14.63;2.72;;;10.50;99.90;;;;;;5030312;28;20500;-74
2024/04/08 03:44:54;;;;;;;28.25;3.78;;;10.50;99.90;;;;;;5032343;28;20108;-74
2024/04/08 03:47:20;;;;;;;25.20;3.47;;;10.60;99.90;;;;;;5025380;28;20061;-73
2024/04/08 03:49:46;;;;;;;18.42;2.30;;;10.60;99.90;;;;;;5026390;28;20053;-74
2024/04/08 03:52:12;;;;;;;16.45;2.72;;;10.50;99.90;;;;;;5025318;28;20049;-74
2024/04/08 03:54:38;;;;;;;22.52;3.95;;;10.60;99.90;;;;;;5011900;28;20060;-74
2024/04/08 03:57:04;;;;;;;16.00;2.53;;;10.50;99.90;;;;;;5030101;28;20050;-74
2024/04/08 03:59:30;;;;;;;26.23;3.40;;;10.60;99.90;;;;;;5013143;28;20132;-74
2024/04/08 04:01:56;;;;;;;24.13;3.20;;;10.60;99.90;;;;;;5021937;28;20171;-74
2024/04/08 04:04:21;;;;;;;14.88;2.67;;;10.60;99.90;;;;;;5024278;28;20408;-74
2024/04/08 04:06:47;;;;;;;20.13;2.85;;;10.60;99.90;;;;;;5021455;28;20049;-74
2024/04/08 04:09:13;;;;;;;20.17;2.90;;;10.60;99.90;;;;;;5021772;28;20063;-75
2024/04/08 04:11:39;;;;;;;21.00;5.18;;;10.70;99.90;;;;;;5023430;28;20474;-75
2024/04/08 04:14:05;;;;;;;16.65;4.13;;;10.60;99.90;;;;;;5027168;28;20057;-74
2024/04/08 04:16:31;;;;;;;12.52;2.35;;;10.70;99.90;;;;;;5018533;28;20459;-74
2024/04/08 04:18:56;;;;;;;17.05;4.07;;;10.70;99.90;;;;;;5041191;28;20060;-74
2024/04/08 04:21:22;;;;;;;16.10;2.92;;;10.70;99.90;;;;;;5018014;28;20083;-74
2024/04/08 04:23:48;;;;;;;17.10;3.22;;;10.60;99.90;;;;;;5023922;28;20045;-74
2024/04/08 04:26:14;;;;;;;20.63;2.80;;;10.60;99.90;;;;;;5042175;28;20114;-74
2024/04/08 04:28:41;;;;;;;17.17;3.10;;;10.60;99.90;;;;;;5023041;28;20057;-73
2024/04/08 04:31:06;;;;;;;21.30;3.15;;;10.60;99.90;;;;;;5019677;28;20054;-73
2024/04/08 04:33:32;;;;;;;16.90;3.00;;;10.70;99.90;;;;;;4998307;28;20120;-73
2024/04/08 04:35:58;;;;;;;20.38;2.97;;;10.70;99.90;;;;;;5007126;28;20053;-73
2024/04/08 04:38:24;;;;;;;18.20;2.95;;;10.70;99.90;;;;;;4985366;28;20066;-75
2024/04/08 04:41:01;;;;;;;22.55;3.05;;;10.70;99.90;;;;;;4989658;28;20124;-73
2024/04/08 04:43:27;;;;;;;25.05;3.90;;;10.70;99.90;;;;;;5001590;28;20057;-75
2024/04/08 04:45:53;;;;;;;19.00;3.80;;;10.70;99.90;;;;;;5002696;28;20057;-74
2024/04/08 04:48:18;;;;;;;16.20;2.70;;;10.70;99.90;;;;;;5001643;28;20050;-74
2024/04/08 04:50:45;;;;;;;22.70;4.65;;;10.70;99.90;;;;;;5001376;28;20128;-73
2024/04/08 04:53:11;;;;;;;13.18;2.40;;;10.70;99.90;;;;;;5000480;28;20399;-73
2024/04/08 04:55:37;;;;;;;21.20;3.03;;;10.70;99.90;;;;;;5001286;28;20045;-74
2024/04/08 04:58:03;;;;;;;21.15;4.63;;;10.60;99.90;;;;;;5002536;28;20089;-74
2024/04/08 05:00:31;;;;;;;16.48;2.50;;;10.60;99.90;;;;;;4997250;28;20060;-74
2024/04/08 05:02:58;;;;;;;17.92;3.05;;;10.60;99.90;;;;;;5002805;28;20062;-73
2024/04/08 05:05:24;;;;;;;14.52;2.58;;;10.60;99.90;;;;;;4998234;28;20069;-73
2024/04/08 05:07:50;;;;;;;19.10;2.92;;;10.50;99.90;;;;;;4997274;28;20056;-77
2024/04/08 05:10:16;;;;;;;21.10;2.50;;;10.50;99.90;;;;;;4996549;28;20034;-75
2024/04/08 05:12:42;;;;;;;22.23;3.20;;;10.50;99.90;;;;;;5000470;28;20168;-74
2024/04/08 05:15:08;;;;;;;12.63;2.53;;;10.50;99.90;;;;;;4989911;28;20085;-74
2024/04/08 05:17:34;;;;;;;15.80;3.53;;;10.50;99.90;;;;;;4989794;28;20432;-73
2024/04/08 05:20:03;;;;;;;13.50;3.42;;;10.50;99.90;;;;;;5002207;28;20042;-73
2024/04/08 05:22:30;;;;;;;17.25;2.80;;;10.40;99.90;;;;;;4983865;28;20493;-73
2024/04/08 05:24:56;;;;;;;12.23;2.20;;;10.40;99.90;;;;;;4984194;28;20042;-73
2024/04/08 05:27:22;;;;;;;14.77;3.30;;;10.40;99.90;;;;;;5000928;28;20519;-74
2024/04/08 05:29:48;;;;;;;22.67;2.97;;;10.40;99.90;;;;;;4981626;28;20061;-73
2024/04/08 05:32:13;;;;;;;20.10;3.65;;;10.40;99.90;;;;;;4983698;28;20080;-73
2024/04/08 05:34:39;;;;;;;16.25;3.53;;;10.40;99.90;;;;;;4998341;28;20413;-75
2024/04/08 05:37:05;;;;;;;15.57;3.08;;;10.40;99.90;;;;;;4998611;28;20057;-78
2024/04/08 05:39:31;;;;;;;24.80;4.18;;;10.40;99.90;;;;;;5001500;28;20214;-75
2024/04/08 05:41:57;;;;;;;31.42;4.90;;;10.40;99.90;;;;;;5000596;28;20042;-76
2024/04/08 05:44:23;;;;;;;15.98;3.70;;;10.40;99.90;;;;;;4999352;28;20056;-75
2024/04/08 05:46:48;;;;;;;22.83;5.00;;;10.40;99.90;;;;;;4980732;28;20097;-74
2024/04/08 05:49:14;;;;;;;18.67;2.92;;;10.40;99.90;;;;;;5003569;28;20134;-73
2024/04/08 05:51:40;;;;;;;15.38;3.08;;;10.40;99.90;;;;;;4978458;28;20471;-73
2024/04/08 05:54:06;;;;;;;20.67;2.63;;;10.40;99.90;;;;;;4984932;28;20060;-73
2024/04/08 05:56:32;;;;;;;19.73;2.83;;;10.40;99.90;;;;;;5002708;28;20045;-73
2024/04/08 05:58:58;;;;;;;19.88;4.80;;;10.40;99.90;;;;;;4998844;28;20104;-74
2024/04/08 06:01:24;;;;;;;16.90;2.40;;;10.50;99.90;;;;;;4994751;28;20041;-73
2024/04/08 06:03:50;;;;;;;29.05;3.80;;;10.50;99.90;;;;;;4967270;28;20508;-73
2024/04/08 06:06:18;;;;;;;18.02;3.30;;;10.50;99.90;;;;;;5000335;28;20061;-74
2024/04/08 06:08:46;;;;;;;18.02;3.38;;;10.50;99.90;;;;;;4981845;28;20456;-74
2024/04/08 06:11:12;;;;;;;20.02;3.53;;;10.60;99.90;;;;;;5001189;28;20073;-74
2024/04/08 06:13:38;;;;;;;22.67;5.10;;;10.80;99.90;;;;;;5002314;28;20054;-74
2024/04/08 06:16:04;;;;;;;17.23;3.33;;;10.60;99.90;;;;;;5000071;28;20468;-75
2024/04/08 06:18:30;;;;;;;21.60;3.08;;;10.60;99.90;;;;;;4999867;28;20045;-74
2024/04/08 06:20:56;;;;;;;22.95;4.25;;;10.70;99.90;;;;;;4997971;28;20517;-73
2024/04/08 06:23:22;;;;;;;17.17;3.63;;;10.70;99.90;;;;;;5004052;28;20042;-74
2024/04/08 06:26:00;;;;;;;20.10;3.03;;;10.80;99.90;;;;;;4999077;28;20061;-74
2024/04/08 06:28:26;;;;;;;22.13;3.15;;;10.80;99.90;;;;;;4983263;28;20053;-75
2024/04/08 06:30:51;;;;;;;19.52;4.32;;;10.90;99.90;;;;;;4992641;28;20042;-74
2024/04/08 06:34:32;;;;;;;23.50;4.07;;;10.90;99.90;;;;;;5463564;25;20352;-75
2024/04/08 06:36:59;;;;;;;14.98;2.35;;;10.90;99.90;;;;;;5448134;26;20462;-75
2024/04/08 06:39:26;;;;;;;18.58;2.90;;;11.00;99.90;;;;;;5450282;26;20400;-75
2024/04/08 06:41:53;;;;;;;20.63;2.75;;;11.00;99.90;;;;;;5462598;26;20462;-75
2024/04/08 06:44:20;;;;;;;18.25;3.60;;;11.00;99.90;;;;;;5455327;26;20420;-75
2024/04/08 06:46:47;;;;;;;20.20;3.10;;;11.00;99.90;;;;;;5454232;26;19999;-75
2024/04/08 06:49:14;;;;;;;27.30;3.08;;;11.10;99.90;;;;;;5440924;26;20007;-75
2024/04/08 06:51:41;;;;;;;12.70;2.95;;;11.10;99.90;;;;;;5440102;26;20462;-75
2024/04/08 06:54:08;;;;;;;29.75;3.47;;;11.10;99.90;;;;;;5446433;26;20007;-75
2024/04/08 06:56:35;;;;;;;14.73;2.67;;;11.20;99.90;;;;;;5442384;26;20079;-75
2024/04/08 06:59:02;;;;;;;26.00;3.90;;;11.20;99.90;;;;;;5442972;26;20828;-74
2024/04/08 07:01:30;;;;;;;15.80;2.85;;;11.20;99.90;;;;;;5448951;26;20075;-73
2024/04/08 07:03:57;;;;;;;17.02;2.47;;;11.20;99.90;;;;;;5446672;26;19999;-73
2024/04/08 07:06:24;;;;;;;21.15;3.20;;;11.20;99.90;;;;;;5448001;26;20072;-74
2024/04/08 07:08:50;;;;;;;20.33;3.97;;;11.20;99.90;;;;;;5447376;26;19999;-72
2024/04/08 07:11:17;;;;;;;13.77;2.85;;;11.30;99.90;;;;;;5459839;26;20014;-73
2024/04/08 07:13:44;;;;;;;19.25;3.28;;;11.30;99.90;;;;;;5458014;26;19995;-73
2024/04/08 07:16:11;;;;;;;21.25;3.13;;;11.30;99.90;;;;;;5449049;26;20011;-73
2024/04/08 07:18:39;;;;;;;12.18;2.78;;;11.30;99.90;;;;;;5455066;26;20003;-73
2024/04/08 07:21:06;;;;;;;20.83;4.45;;;11.30;99.90;;;;;;5451872;26;20022;-73
2024/04/08 07:23:33;;;;;;;17.67;3.45;;;11.40;99.90;;;;;;5460453;26;20022;-71
2024/04/08 07:26:00;;;;;;;21.90;3.50;;;11.50;99.90;;;;;;5465655;26;20007;-71
2024/04/08 07:28:26;;;;;;;14.30;2.58;;;11.50;99.90;;;;;;5449843;26;19994;-72
2024/04/08 07:30:53;;;;;;;17.35;3.83;;;11.50;99.90;;;;;;5450613;26;20007;-73
2024/04/08 07:33:20;;;;;;;20.90;2.63;;;11.50;99.90;;;;;;5435669;26;20029;-72
2024/04/08 07:35:48;;;;;;;17.80;2.97;;;11.60;99.90;;;;;;5456417;26;20042;-72
2024/04/08 07:38:15;;;;;;;16.27;3.72;;;11.60;99.90;;;;;;5452317;26;19998;-73
2024/04/08 07:40:42;;;;;;;15.30;3.45;;;11.70;99.90;;;;;;5447927;26;20082;-69
2024/04/08 07:43:09;;;;;;;16.90;3.38;;;11.70;99.90;;;;;;5450198;26;20411;-72
2024/04/08 07:45:38;;;;;;;21.25;3.47;;;11.80;99.90;;;;;;5438644;26;20537;-72
2024/04/08 07:48:06;;;;;;;16.92;3.47;;;11.80;99.90;;;;;;5410924;26;20672;-72
2024/04/08 07:50:36;;;;;;;19.70;2.85;;;11.80;99.90;;;;;;5442903;26;20458;-72
2024/04/08 07:53:04;;;;;;;16.73;2.67;;;11.90;99.90;;;;;;5400556;26;20031;-72
2024/04/08 07:55:31;;;;;;;18.38;2.85;;;12.00;99.90;;;;;;5441862;26;20006;-71
2024/04/08 07:57:58;;;;;;;15.68;2.60;;;12.10;99.90;;;;;;5425386;26;20002;-70
2024/04/08 08:00:25;;;;;;;13.00;2.55;;;12.10;99.90;;;;;;5431753;26;20474;-70
2024/04/08 08:02:52;;;;;;;17.08;3.55;;;12.20;99.90;;;;;;5419641;26;20003;-71
2024/04/08 08:05:19;;;;;;;13.73;3.15;;;12.30;99.90;;;;;;5422805;26;19998;-70
2024/04/08 08:07:46;;;;;;;18.90;2.95;;;12.30;99.90;;;;;;5428712;26;20319;-71
2024/04/08 08:10:13;;;;;;;11.30;2.28;;;12.40;99.90;;;;;;5436994;26;20017;-69
2024/04/08 08:12:40;;;;;;;11.32;2.40;;;12.50;99.90;;;;;;5426817;26;19999;-69
2024/04/08 08:15:07;;;;;;;18.70;3.58;;;12.60;99.90;;;;;;5438614;26;20241;-71
2024/04/08 08:17:34;;;;;;;14.40;2.78;;;12.60;99.90;;;;;;5434664;26;20057;-70
2024/04/08 08:20:00;;;;;;;23.08;3.65;;;12.70;99.90;;;;;;5472711;26;20009;-71
2024/04/08 08:22:27;;;;;;;20.67;3.10;;;12.80;99.90;;;;;;5442416;26;20000;-70
2024/04/08 08:24:54;;;;;;;17.05;2.83;;;12.80;99.90;;;;;;5452689;26;20017;-71
2024/04/08 08:27:21;;;;;;;19.33;3.67;;;12.90;99.90;;;;;;5420338;26;20491;-70
2024/04/08 08:29:52;;;;;;;19.10;2.90;;;12.90;99.90;;;;;;5425046;26;19999;-70
2024/04/08 08:32:20;;;;;;;20.20;3.05;;;13.00;99.90;;;;;;5430483;26;20652;-70
2024/04/08 08:34:47;;;;;;;20.75;2.85;;;13.00;99.90;;;;;;5440815;26;20021;-70
2024/04/08 08:37:14;;;;;;;24.75;3.85;;;13.10;99.90;;;;;;5427690;26;20015;-71
2024/04/08 08:39:41;;;;;;;18.05;3.40;;;13.10;99.90;;;;;;5435755;26;20014;-70
2024/04/08 08:42:08;;;;;;;18.65;5.13;;;13.20;99.90;;;;;;5447176;26;20083;-70
2024/04/08 08:44:35;;;;;;;18.17;3.10;;;13.30;99.90;;;;;;5459672;26;20013;-70
2024/04/08 08:47:02;;;;;;;18.65;4.10;;;13.30;99.90;;;;;;5431103;26;20006;-70
2024/04/08 08:49:29;;;;;;;17.38;3.38;;;13.30;99.90;;;;;;5419520;26;20192;-71
2024/04/08 08:51:56;;;;;;;15.43;3.05;;;13.50;99.90;;;;;;5439893;26;20073;-71
2024/04/08 08:54:23;;;;;;;19.90;3.45;;;13.50;99.90;;;;;;5414748;26;19999;-71
2024/04/08 08:56:50;;;;;;;15.25;3.30;;;13.50;99.90;;;;;;5422301;26;20006;-72
2024/04/08 08:59:17;;;;;;;20.52;4.53;;;13.60;99.90;;;;;;5398914;26;20013;-71
2024/04/08 09:01:44;;;;;;;17.58;3.10;;;13.60;99.90;;;;;;5402453;26;20340;-70
2024/04/08 09:04:12;;;;;;;18.67;4.70;;;13.70;99.90;;;;;;5406882;26;20011;-74
2024/04/08 09:06:42;;;;;;;19.75;3.95;;;13.70;99.90;;;;;;5433416;26;20011;-71
2024/04/08 09:09:11;;;;;;;15.68;2.53;;;13.80;99.90;;;;;;5399898;26;20015;-70
2024/04/08 09:11:46;;;;;;;16.58;3.70;;;13.90;99.90;;;;;;5434024;26;20377;-71
2024/04/08 09:14:13;;;;;;;12.32;2.97;;;13.90;99.90;;;;;;5429657;26;20076;-67
2024/04/08 09:16:41;;;;;;;16.95;2.70;;;14.00;99.90;;;;;;5429882;26;20007;-72
2024/04/08 09:19:09;;;;;;;14.15;3.42;;;14.10;99.90;;;;;;5443754;26;20326;-72
2024/04/08 09:21:36;;;;;;;14.27;2.75;;;14.10;99.90;;;;;;5451715;26;20014;-72
2024/04/08 09:24:07;;;;;;;16.52;2.97;;;14.20;99.90;;;;;;5456765;26;20082;-72
2024/04/08 09:26:35;;;;;;;17.30;2.58;;;14.30;99.90;;;;;;5440925;26;20007;-72
2024/04/08 09:29:02;;;;;;;19.95;2.80;;;14.30;99.90;;;;;;5435496;26;20003;-72
2024/04/08 09:31:29;;;;;;;16.25;3.90;;;14.30;99.90;;;;;;5434800;26;20052;-73
2024/04/08 09:33:56;;;;;;;19.98;3.30;;;14.40;99.90;;;;;;5434721;26;20022;-72
2024/04/08 09:36:23;;;;;;;38.78;4.22;;;14.50;99.90;;;;;;5426725;26;20485;-72
2024/04/08 09:38:50;;;;;;;10.55;2.50;;;14.60;99.90;;;;;;5423061;26;20010;-72
2024/04/08 09:41:17;;;;;;;17.50;3.15;;;14.70;99.90;;;;;;5447798;26;19999;-73
2024/04/08 09:43:45;;;;;;;18.67;3.95;;;14.70;99.90;;;;;;5440504;26;20003;-72
2024/04/08 09:46:13;;;;;;;12.07;3.67;;;14.80;99.90;;;;;;5404538;26;20341;-71
2024/04/08 09:48:40;;;;;;;16.65;3.67;;;14.80;99.90;;;;;;5400290;26;20114;-71
2024/04/08 09:51:11;;;;;;;16.05;2.70;;;14.90;99.90;;;;;;5435182;26;19999;-72
2024/04/08 09:53:38;;;;;;;14.63;3.17;;;14.90;99.90;;;;;;5430762;26;20013;-72
2024/04/08 09:56:10;;;;;;;16.67;3.83;;;14.90;99.90;;;;;;5404878;26;20100;-72
2024/04/08 09:58:39;;;;;;;12.38;3.30;;;14.90;99.90;;;;;;5410002;26;20010;-71
2024/04/08 10:01:07;;;;;;;14.73;2.83;;;15.00;99.90;;;;;;5426560;26;20007;-72
2024/04/08 10:03:45;;;;;;;19.58;2.85;;;15.10;99.90;;;;;;5404129;26;19999;-72
2024/04/08 10:06:14;;;;;;;21.38;3.90;;;15.20;99.90;;;;;;5394120;26;19995;-72
2024/04/08 10:08:43;;;;;;;22.65;3.20;;;15.30;99.90;;;;;;5417967;26;20516;-72
2024/04/08 10:11:11;;;;;;;12.75;2.33;;;15.30;99.90;;;;;;5388953;26;19999;-72
2024/04/08 10:13:48;;;;;;;19.70;2.97;;;15.40;99.90;;;;;;5425442;26;20076;-72
2024/04/08 10:16:16;;;;;;;17.48;3.30;;;15.40;99.90;;;;;;5450819;26;19999;-73
2024/04/08 10:18:53;;;;;;;17.92;2.50;;;15.50;99.90;;;;;;5440181;26;20096;-72
2024/04/08 10:21:25;;;;;;;12.95;2.35;;;15.50;99.90;;;;;;5439893;26;19995;-72
2024/04/08 10:23:53;;;;;;;9.77;2.72;;;15.50;99.90;;;;;;5438365;26;20040;-71
2024/04/08 10:26:23;;;;;;;11.00;2.33;;;15.40;99.90;;;;;;5425588;26;20027;-72
2024/04/08 10:28:50;;;;;;;14.57;2.63;;;15.40;99.90;;;;;;5421698;26;20007;-72
2024/04/08 10:31:20;;;;;;;16.33;2.75;;;15.50;99.90;;;;;;5439372;26;19999;-72
2024/04/08 10:33:48;;;;;;;12.40;3.30;;;15.60;99.90;;;;;;5438210;26;20027;-72
2024/04/08 10:36:16;;;;;;;10.55;2.15;;;15.60;99.90;;;;;;5439182;26;20013;-73
2024/04/08 10:38:43;;;;;;;13.10;2.08;;;15.70;99.90;;;;;;5463483;26;20341;-72
2024/04/08 10:41:10;;;;;;;11.73;2.10;;;15.70;99.90;;;;;;5449486;26;20007;-73
2024/04/08 10:43:37;;;;;;;16.67;3.28;;;15.80;99.90;;;;;;5432848;26;20518;-73
2024/04/08 10:46:14;;;;;;;10.73;2.55;;;15.80;99.90;;;;;;5422572;26;20074;-73
2024/04/08 10:48:42;;;;;;;13.55;2.50;;;15.80;99.90;;;;;;5443742;26;20078;-73
2024/04/08 10:51:18;;;;;;;15.65;2.60;;;15.90;99.90;;;;;;5460758;26;20079;-72
2024/04/08 10:53:45;;;;;;;12.23;2.88;;;16.00;99.90;;;;;;5457102;26;20003;-72
2024/04/08 10:56:12;;;;;;;24.48;2.15;;;16.10;99.90;;;;;;5442118;26;20003;-72
2024/04/08 10:58:39;;;;;;;8.95;2.03;;;16.20;99.90;;;;;;5499942;26;20011;-72
2024/04/08 11:01:06;;;;;;;6.80;1.80;;;16.20;99.90;;;;;;5461447;26;20017;-72
2024/04/08 11:03:33;;;;;;;12.35;2.10;;;16.10;99.90;;;;;;5410602;26;20009;-73
2024/04/08 11:06:00;;;;;;;12.23;2.80;;;16.10;99.90;;;;;;5439252;26;20003;-73
2024/04/08 11:08:27;;;;;;;11.02;2.22;;;16.20;99.90;;;;;;5444996;26;20002;-71
2024/04/08 11:10:55;;;;;;;6.20;1.83;;;16.20;99.90;;;;;;5415879;26;20049;-73
2024/04/08 11:13:22;;;;;;;9.88;2.25;;;16.20;99.90;;;;;;5427301;26;20480;-74
2024/04/08 11:15:49;;;;;;;11.63;3.17;;;16.20;99.90;;;;;;5430754;26;20002;-75
2024/04/08 11:18:19;;;;;;;8.70;1.98;;;16.20;99.90;;;;;;5429444;26;20034;-75
2024/04/08 11:20:46;;;;;;;13.63;2.08;;;16.20;99.90;;;;;;5458914;26;20036;-75
2024/04/08 11:23:14;;;;;;;11.38;2.17;;;16.20;99.90;;;;;;5384748;26;20000;-75
2024/04/08 11:25:41;;;;;;;8.00;1.95;;;16.30;99.90;;;;;;5441173;26;19999;-75
2024/04/08 11:28:08;;;;;;;7.43;1.73;;;16.30;99.90;;;;;;5427026;26;20019;-76
2024/04/08 11:30:35;;;;;;;7.55;1.98;;;16.40;99.90;;;;;;5417869;26;20073;-76
2024/04/08 11:33:02;;;;;;;11.80;2.90;;;16.60;99.90;;;;;;5437604;26;20006;-76
2024/04/08 11:35:30;;;;;;;11.48;2.05;;;16.80;99.90;;;;;;5437454;26;20021;-74
2024/04/08 11:37:57;;;;;;;11.13;2.63;;;16.80;99.90;;;;;;5448223;26;20393;-75
2024/04/08 11:40:32;;;;;;;9.63;2.00;;;16.90;99.90;;;;;;5412920;26;20011;-75
2024/04/08 11:42:59;;;;;;;8.95;1.80;;;17.00;99.90;;;;;;5434887;26;20411;-74
2024/04/08 11:45:28;;;;;;;11.25;3.55;;;17.10;99.90;;;;;;5447231;26;20002;-74
2024/04/08 11:47:55;;;;;;;9.18;2.00;;;17.20;99.90;;;;;;5439700;26;20014;-74
2024/04/08 11:50:22;;;;;;;8.85;1.77;;;17.20;99.90;;;;;;5434776;26;20022;-75
2024/04/08 11:52:49;;;;;;;9.43;1.95;;;17.30;99.90;;;;;;5065438;26;10000801;-75
2024/04/08 11:55:18;;;;;;;11.50;2.00;;;17.40;99.90;;;;;;5406369;26;20468;-75
2024/04/08 11:57:45;;;;;;;10.45;1.90;;;17.50;99.90;;;;;;5434131;26;20007;-75
2024/04/08 12:00:18;;;;;;;6.97;2.00;;;17.50;99.90;;;;;;5432699;26;19998;-73
2024/04/08 12:02:45;;;;;;;12.10;2.58;;;17.50;99.90;;;;;;5427747;26;20007;-74
2024/04/08 12:05:12;;;;;;;6.22;1.83;;;17.50;99.90;;;;;;5411005;26;20714;-75
2024/04/08 12:07:39;;;;;;;7.00;1.65;;;17.40;99.90;;;;;;5403199;26;20007;-74
2024/04/08 12:10:10;;;;;;;9.70;2.40;;;17.50;99.90;;;;;;5431356;26;20544;-74
2024/04/08 12:12:37;;;;;;;8.40;1.65;;;17.40;99.90;;;;;;5409114;26;20011;-75
2024/04/08 12:15:05;;;;;;;5.75;1.60;;;17.40;99.90;;;;;;5430049;26;20007;-74
2024/04/08 12:17:33;;;;;;;5.55;1.20;;;17.50;99.90;;;;;;5424713;26;20031;-74
2024/04/08 12:20:00;;;;;;;9.55;2.38;;;17.40;99.90;;;;;;5427263;26;20014;-74
2024/04/08 12:22:27;;;;;;;6.38;1.48;;;17.50;99.90;;;;;;5423832;26;20007;-75
2024/04/08 12:24:53;;;;;;;6.55;1.17;;;17.40;99.90;;;;;;5437273;26;19999;-75
2024/04/08 12:27:22;;;;;;;10.02;2.03;;;17.40;99.90;;;;;;5427008;26;20011;-72
2024/04/08 12:29:50;;;;;;;7.88;1.63;;;17.50;99.90;;;;;;5444226;26;20893;-73
2024/04/08 12:32:17;;;;;;;8.70;1.70;;;17.70;99.90;;;;;;5424916;26;20047;-73
2024/04/08 12:34:44;;;;;;;17.17;2.70;;;17.80;99.90;;;;;;5441229;26;20014;-75
2024/04/08 12:37:11;;;;;;;8.32;1.55;;;17.80;99.90;;;;;;5427834;26;20014;-76